createdAt,value
2022-11-18T00:00:09.448Z,100067.81
2022-11-18T00:02:10.978Z,100063.47
2022-11-18T00:04:12.648Z,100066.09
2022-11-18T00:06:23.395Z,100073.06
2022-11-18T00:08:25.879Z,100069.59
2022-11-18T00:10:27.323Z,100069.63
2022-11-18T00:12:47.290Z,100066.13
2022-11-18T00:14:48.727Z,100077.47
2022-11-18T00:17:01.469Z,100072.22
2022-11-18T00:19:02.984Z,100073.16
2022-11-18T00:21:07.617Z,100081.88
2022-11-18T00:23:09.037Z,100079.25
2022-11-18T00:25:10.486Z,100081.88
2022-11-18T00:27:11.946Z,100077.53
2022-11-18T00:29:13.560Z,100087.13
2022-11-18T00:31:15.018Z,100089.75
2022-11-18T00:33:16.451Z,100081.03
2022-11-18T00:35:17.897Z,100083.66
2022-11-18T00:37:19.626Z,100088.88
2022-11-18T00:39:22.036Z,100081.03
2022-11-18T00:41:23.997Z,100092.34
2022-11-18T00:43:25.437Z,100094.94
2022-11-18T00:45:26.900Z,100096.69
2022-11-18T00:47:28.335Z,100099.34
2022-11-18T00:49:29.896Z,100099.34
2022-11-18T00:51:31.344Z,100098.47
2022-11-18T00:53:32.775Z,100099.34
2022-11-18T00:55:34.238Z,100095.84
2022-11-18T00:57:35.718Z,100096.72
2022-11-18T00:59:37.145Z,100102.81
2022-11-18T01:01:38.758Z,100109.81
2022-11-18T01:03:40.226Z,100116.78
2022-11-18T01:05:41.807Z,100120.28
2022-11-18T01:07:43.330Z,100120.31
2022-11-18T01:09:44.777Z,100110.72
2022-11-18T01:12:04.816Z,100125.56
2022-11-18T01:14:06.266Z,100123.84
2022-11-18T01:16:07.709Z,100129.09
2022-11-18T01:18:09.858Z,100122.13
2022-11-18T01:20:11.691Z,100128.22
2022-11-18T01:22:13.125Z,100123.84
2022-11-18T01:24:14.741Z,100130.84
2022-11-18T01:26:17.735Z,100128.25
2022-11-18T01:28:23.583Z,100124.78
2022-11-18T01:30:25.681Z,100133.47
2022-11-18T01:32:28.501Z,100130.91
2022-11-18T01:34:30.008Z,100134.41
2022-11-18T01:36:31.498Z,100137.88
2022-11-18T01:38:32.965Z,100136.19
2022-11-18T01:40:35.598Z,100138.78
2022-11-18T01:42:37.182Z,100141.38
2022-11-18T01:44:59.193Z,100141.41
2022-11-18T01:47:00.650Z,100144.03
2022-11-18T01:49:09.162Z,100145.78
2022-11-18T01:51:14.820Z,100148.38
2022-11-18T01:53:23.217Z,100149.22
2022-11-18T01:55:27.107Z,100147.50
2022-11-18T01:57:30.721Z,100151.00
2022-11-18T01:59:36.052Z,100151.03
2022-11-18T02:01:37.840Z,100155.38
2022-11-18T02:03:39.977Z,100156.25
2022-11-18T02:05:43.775Z,100158.84
2022-11-18T02:07:45.392Z,100164.13
2022-11-18T02:09:46.981Z,100164.13
2022-11-18T02:11:51.598Z,100165.84
2022-11-18T02:13:53.122Z,100165.00
2022-11-18T02:16:10.565Z,100166.78
2022-11-18T02:18:30.502Z,100168.50
2022-11-18T02:20:36.926Z,100166.78
2022-11-18T02:23:00.294Z,100171.16
2022-11-18T02:25:31.289Z,100171.16
2022-11-18T02:27:54.114Z,100185.13
2022-11-18T02:30:04.770Z,100181.66
2022-11-18T02:32:13.552Z,100179.91
2022-11-18T02:34:14.890Z,100184.34
2022-11-18T02:36:22.601Z,100184.31
2022-11-18T02:38:28.409Z,100186.03
2022-11-18T02:40:34.516Z,100186.03
2022-11-18T02:42:39.217Z,100188.66
2022-11-18T02:44:45.997Z,100180.78
2022-11-18T02:46:52.157Z,100184.28
2022-11-18T02:48:55.936Z,100179.94
2022-11-18T02:50:58.509Z,100187.75
2022-11-18T02:53:02.801Z,100188.63
2022-11-18T02:55:09.338Z,100191.22
2022-11-18T02:57:11.968Z,100190.34
2022-11-18T02:59:19.402Z,100198.19
2022-11-18T03:01:27.267Z,100195.59
2022-11-18T03:03:36.489Z,100198.22
2022-11-18T03:05:48.904Z,100200.00
2022-11-18T03:08:01.480Z,100194.75
2022-11-18T03:10:03.635Z,100201.75
2022-11-18T03:12:15.533Z,100204.38
2022-11-18T03:14:22.846Z,100207.03
2022-11-18T03:16:32.122Z,100209.66
2022-11-18T03:18:39.515Z,100203.53
2022-11-18T03:20:51.138Z,100204.44
2022-11-18T03:22:58.067Z,100219.25
2022-11-18T03:25:13.800Z,100214.91
2022-11-18T03:27:19.663Z,100214.09
2022-11-18T03:29:29.484Z,100210.66
2022-11-18T03:31:41.522Z,100220.22
2022-11-18T03:33:51.949Z,100213.25
2022-11-18T03:35:54.871Z,100219.38
2022-11-18T03:38:04.355Z,100219.38
2022-11-18T03:40:28.225Z,100228.13
2022-11-18T03:42:45.142Z,100227.31
2022-11-18T03:44:52.769Z,100232.56
2022-11-18T03:47:04.546Z,100237.81
2022-11-18T03:49:09.785Z,100244.81
2022-11-18T03:51:15.797Z,100238.72
2022-11-18T03:53:20.509Z,100238.69
2022-11-18T03:55:30.343Z,100250.00
2022-11-18T03:57:47.391Z,100250.03
2022-11-18T03:59:54.826Z,100268.34
2022-11-18T04:02:11.224Z,100265.75
2022-11-18T04:04:13.707Z,100266.69
2022-11-18T04:06:36.138Z,100271.94
2022-11-18T04:08:41.767Z,100271.06
2022-11-18T04:10:52.278Z,100265.84
2022-11-18T04:13:32.645Z,100272.84
2022-11-18T04:15:37.919Z,100279.81
2022-11-18T04:17:41.935Z,100275.50
2022-11-18T04:19:43.857Z,100285.13
2022-11-18T04:21:48.050Z,100283.38
2022-11-18T04:23:49.477Z,100284.25
2022-11-18T04:25:50.943Z,100281.63
2022-11-18T04:27:52.555Z,100286.88
2022-11-18T04:29:54.008Z,100284.25
2022-11-18T04:31:55.566Z,100285.13
2022-11-18T04:33:57.117Z,100284.28
2022-11-18T04:35:58.574Z,100289.50
2022-11-18T04:38:00.027Z,100294.72
2022-11-18T04:40:01.707Z,100299.13
2022-11-18T04:42:03.218Z,100305.22
2022-11-18T04:44:12.998Z,100308.72
2022-11-18T04:46:14.693Z,100308.72
2022-11-18T04:48:16.203Z,100309.59
2022-11-18T04:50:17.753Z,100314.00
2022-11-18T04:52:19.466Z,100305.34
2022-11-18T04:54:21.463Z,100310.56
2022-11-18T04:56:22.902Z,100310.59
2022-11-18T04:58:24.370Z,100324.53
2022-11-18T05:00:25.874Z,100326.28
2022-11-18T05:02:27.327Z,100321.94
2022-11-18T05:04:30.958Z,100324.53
2022-11-18T05:06:33.993Z,100328.91
2022-11-18T05:08:35.505Z,100335.03
2022-11-18T05:10:38.747Z,100337.66
2022-11-18T05:12:49.082Z,100335.06
2022-11-18T05:14:51.186Z,100340.31
2022-11-18T05:16:53.340Z,100338.59
2022-11-18T05:18:54.866Z,100342.13
2022-11-18T05:20:56.358Z,100344.75
2022-11-18T05:22:57.794Z,100338.69
2022-11-18T05:24:59.307Z,100344.81
2022-11-18T05:27:00.782Z,100346.56
2022-11-18T05:29:02.247Z,100353.50
2022-11-18T05:31:14.400Z,100353.53
2022-11-18T05:33:15.835Z,100350.94
2022-11-18T05:35:17.296Z,100346.59
2022-11-18T05:37:18.734Z,100347.47
2022-11-18T05:39:20.576Z,100350.09
2022-11-18T05:41:40.823Z,100356.19
2022-11-18T05:43:42.240Z,100357.09
2022-11-18T05:45:44.373Z,100362.34
2022-11-18T05:48:00.829Z,100362.34
2022-11-18T05:50:02.429Z,100363.22
2022-11-18T05:52:04.162Z,100369.31
2022-11-18T05:54:08.988Z,100370.16
2022-11-18T05:56:17.978Z,100376.28
2022-11-18T05:58:19.531Z,100382.38
2022-11-18T06:00:21.253Z,100388.47
2022-11-18T06:02:24.462Z,100387.59
2022-11-18T06:04:35.086Z,100387.66
2022-11-18T06:06:37.241Z,100394.59
2022-11-18T06:08:46.334Z,100396.38
2022-11-18T06:10:49.627Z,100394.66
2022-11-18T06:12:55.654Z,100396.41
2022-11-18T06:15:03.073Z,100407.72
2022-11-18T06:17:08.879Z,100403.34
2022-11-18T06:19:10.621Z,100396.41
2022-11-18T06:21:12.707Z,100405.09
2022-11-18T06:23:14.470Z,100401.63
2022-11-18T06:25:16.366Z,100415.56
2022-11-18T06:27:18.843Z,100411.22
2022-11-18T06:29:27.264Z,100412.97
2022-11-18T06:31:29.263Z,100413.84
2022-11-18T06:33:30.715Z,100411.22
2022-11-18T06:35:32.516Z,100422.53
2022-11-18T06:37:34.155Z,100423.41
2022-11-18T06:39:37.346Z,100422.53
2022-11-18T06:41:38.883Z,100431.22
2022-11-18T06:43:41.716Z,100435.56
2022-11-18T06:46:08.687Z,100440.81
2022-11-18T06:48:10.668Z,100440.81
2022-11-18T06:50:12.128Z,100445.16
2022-11-18T06:52:13.575Z,100454.72
2022-11-18T06:54:15.094Z,100453.88
2022-11-18T06:56:18.365Z,100457.34
2022-11-18T06:58:19.812Z,100459.09
2022-11-18T07:00:21.498Z,100457.34
2022-11-18T07:02:22.955Z,100460.84
2022-11-18T07:04:24.473Z,100470.41
2022-11-18T07:06:28.427Z,100471.28
2022-11-18T07:08:29.885Z,100484.31
2022-11-18T07:10:31.313Z,100470.38
2022-11-18T07:12:32.770Z,100486.94
2022-11-18T07:14:34.327Z,100488.66
2022-11-18T07:16:36.751Z,100487.81
2022-11-18T07:18:40.869Z,100493.03
2022-11-18T07:20:42.359Z,100495.63
2022-11-18T07:22:43.813Z,100486.06
2022-11-18T07:24:45.303Z,100493.91
2022-11-18T07:26:47.002Z,100493.91
2022-11-18T07:28:48.973Z,100498.22
2022-11-18T07:30:50.754Z,100507.81
2022-11-18T07:32:52.169Z,100509.53
2022-11-18T07:34:53.634Z,100519.13
2022-11-18T07:36:55.072Z,100513.91
2022-11-18T07:39:00.125Z,100519.13
2022-11-18T07:41:13.323Z,100515.66
2022-11-18T07:43:14.742Z,100520.03
2022-11-18T07:45:16.259Z,100516.56
2022-11-18T07:47:17.691Z,100522.63
2022-11-18T07:49:19.593Z,100528.72
2022-11-18T07:51:23.869Z,100531.34
2022-11-18T07:53:25.304Z,100534.84
2022-11-18T07:55:31.918Z,100531.34
2022-11-18T07:57:33.681Z,100542.66
2022-11-18T07:59:35.134Z,100539.19
2022-11-18T08:01:36.586Z,100551.34
2022-11-18T08:03:38.451Z,100549.63
2022-11-18T08:05:40.086Z,100549.63
2022-11-18T08:07:41.647Z,100555.69
2022-11-18T08:09:43.185Z,100560.03
2022-11-18T08:11:44.654Z,100569.63
2022-11-18T08:13:46.254Z,100562.66
2022-11-18T08:15:47.691Z,100576.56
2022-11-18T08:17:49.370Z,100571.34
2022-11-18T08:19:50.835Z,100571.34
2022-11-18T08:21:52.295Z,100578.31
2022-11-18T08:23:56.443Z,100574.84
2022-11-18T08:26:07.307Z,100580.94
2022-11-18T08:28:08.838Z,100584.41
2022-11-18T08:30:11.011Z,100580.94
2022-11-18T08:32:12.481Z,100585.28
2022-11-18T08:34:15.049Z,100588.75
2022-11-18T08:36:20.771Z,100587.88
2022-11-18T08:38:22.257Z,100590.50
2022-11-18T08:40:24.151Z,100595.72
2022-11-18T08:42:29.947Z,100602.69
2022-11-18T08:44:34.606Z,100604.44
2022-11-18T08:46:36.069Z,100602.69
2022-11-18T08:48:37.549Z,100607.91
2022-11-18T08:50:39.005Z,100613.13
2022-11-18T08:52:40.513Z,100615.75
2022-11-18T08:54:41.956Z,100617.50
2022-11-18T08:56:43.560Z,100618.34
2022-11-18T08:58:45.364Z,100620.97
2022-11-18T09:00:46.818Z,100620.09
2022-11-18T09:02:48.279Z,100633.13
2022-11-18T09:04:52.444Z,100623.56
2022-11-18T09:06:53.970Z,100633.13
2022-11-18T09:08:55.528Z,100630.53
2022-11-18T09:10:56.949Z,100629.66
2022-11-18T09:13:12.201Z,100641.84
2022-11-18T09:15:20.028Z,100635.75
2022-11-18T09:17:21.697Z,100646.19
2022-11-18T09:19:46.108Z,100642.72
2022-11-18T09:21:46.043Z,100642.72
2022-11-18T09:23:47.957Z,100651.41
2022-11-18T09:25:56.687Z,100640.09
2022-11-18T09:27:58.162Z,100647.91
2022-11-18T09:29:59.760Z,100649.66
2022-11-18T09:32:02.213Z,100649.66
2022-11-18T09:34:03.672Z,100652.28
2022-11-18T09:36:11.105Z,100654.88
2022-11-18T09:38:12.662Z,100668.78
2022-11-18T09:40:17.846Z,100658.34
2022-11-18T09:42:39.465Z,100667.91
2022-11-18T09:45:14.011Z,100673.97
2022-11-18T09:47:33.889Z,100672.25
2022-11-18T09:49:38.698Z,100680.06
2022-11-18T09:51:46.503Z,100688.75
2022-11-18T09:53:47.990Z,100690.50
2022-11-18T09:55:52.052Z,100686.16
2022-11-18T09:57:56.804Z,100691.34
2022-11-18T09:59:58.967Z,100689.63
2022-11-18T10:02:13.916Z,100694.88
2022-11-18T10:04:17.783Z,100698.31
2022-11-18T10:06:29.357Z,100695.72
2022-11-18T10:09:00.273Z,100695.72
2022-11-18T10:11:14.319Z,100701.78
2022-11-18T10:13:41.397Z,100710.47
2022-11-18T10:16:00.532Z,100719.19
2022-11-18T10:18:59.334Z,100714.84
2022-11-18T10:21:04.940Z,100727.00
2022-11-18T10:23:09.491Z,100726.13
2022-11-18T10:25:16.661Z,100728.75
2022-11-18T10:27:19.056Z,100729.59
2022-11-18T10:29:20.553Z,100730.47
2022-11-18T10:31:22.016Z,100745.25
2022-11-18T10:33:23.420Z,100749.59
2022-11-18T10:35:37.275Z,100747.84
2022-11-18T10:38:06.220Z,100753.06
2022-11-18T10:40:03.313Z,100744.38
2022-11-18T10:42:07.073Z,100743.50
2022-11-18T10:44:27.635Z,100752.19
2022-11-18T10:46:39.171Z,100747.84
2022-11-18T10:48:40.675Z,100749.59
2022-11-18T10:50:55.822Z,100759.16
2022-11-18T10:52:57.749Z,100759.16
2022-11-18T10:55:14.274Z,100752.22
2022-11-18T10:57:23.053Z,100752.22
2022-11-18T10:59:28.814Z,100762.63
2022-11-18T11:01:30.320Z,100759.16
2022-11-18T11:03:35.057Z,100770.44
2022-11-18T11:05:36.502Z,100765.22
2022-11-18T11:07:38.130Z,100773.03
2022-11-18T11:09:39.829Z,100766.97
2022-11-18T11:11:45.195Z,100773.91
2022-11-18T11:13:46.713Z,100769.56
2022-11-18T11:15:51.501Z,100775.63
2022-11-18T11:18:39.761Z,100772.16
2022-11-18T11:20:41.287Z,100772.16
2022-11-18T11:22:43.063Z,100783.47
2022-11-18T11:24:44.833Z,100786.06
2022-11-18T11:29:25.776Z,100791.28
2022-11-18T11:31:43.200Z,100786.06
2022-11-18T11:33:56.737Z,100786.94
2022-11-18T11:36:07.575Z,100790.41
2022-11-18T11:38:17.790Z,100793.91
2022-11-18T11:40:22.298Z,100790.41
2022-11-18T11:43:01.344Z,100790.41
2022-11-18T11:45:02.733Z,100794.78
2022-11-18T11:47:40.775Z,100793.03
2022-11-18T11:50:21.768Z,100791.28
2022-11-18T11:52:37.441Z,100799.13
2022-11-18T11:55:29.682Z,100801.72
2022-11-18T11:58:03.958Z,100806.94
2022-11-18T12:00:12.206Z,100806.94
2022-11-18T12:02:25.493Z,100808.69
2022-11-18T12:04:36.941Z,100806.94
2022-11-18T12:06:39.168Z,100813.91
2022-11-18T12:08:52.742Z,100808.69
2022-11-18T12:11:03.380Z,100811.28
2022-11-18T12:13:41.935Z,100813.03
2022-11-18T12:15:55.887Z,100816.50
2022-11-18T12:18:24.225Z,100820.84
2022-11-18T12:20:39.792Z,100818.25
2022-11-18T12:23:09.239Z,100827.81
2022-11-18T12:25:48.541Z,100828.69
2022-11-18T12:27:51.175Z,100821.72
2022-11-18T12:30:01.715Z,100822.59
2022-11-18T12:32:03.906Z,100820.88
2022-11-18T12:34:18.910Z,100832.16
2022-11-18T12:36:27.364Z,100828.69
2022-11-18T12:38:31.475Z,100833.91
2022-11-18T12:40:52.337Z,100830.44
2022-11-18T12:43:13.746Z,100843.47
2022-11-18T12:45:46.633Z,100837.38
2022-11-18T12:47:48.134Z,100845.19
2022-11-18T12:50:13.083Z,100842.59
2022-11-18T12:52:29.682Z,100853.03
2022-11-18T12:54:48.966Z,100847.81
2022-11-18T12:56:51.274Z,100854.75
2022-11-18T12:58:58.006Z,100857.38
2022-11-18T13:01:08.276Z,100854.75
2022-11-18T13:03:09.753Z,100860.84
2022-11-18T13:05:19.306Z,100865.19
2022-11-18T13:07:38.998Z,100864.28
2022-11-18T13:09:41.506Z,100866.03
2022-11-18T13:11:56.431Z,100869.50
2022-11-18T13:14:16.740Z,100867.75
2022-11-18T13:16:43.267Z,100860.81
2022-11-18T13:18:52.552Z,100865.16
2022-11-18T13:21:19.512Z,100871.25
2022-11-18T13:23:48.621Z,100869.50
2022-11-18T13:25:50.860Z,100864.28
2022-11-18T13:28:09.529Z,100867.75
2022-11-18T13:30:12.342Z,100879.03
2022-11-18T13:32:28.088Z,100876.44
2022-11-18T13:34:31.725Z,100882.53
2022-11-18T13:36:33.361Z,100881.66
2022-11-18T13:38:34.963Z,100881.66
2022-11-18T13:41:04.487Z,100885.13
2022-11-18T13:43:06.125Z,100886.88
2022-11-18T13:45:13.401Z,100889.47
2022-11-18T13:47:36.991Z,100893.81
2022-11-18T13:49:53.582Z,100899.03
2022-11-18T13:51:56.878Z,100899.88
2022-11-18T13:53:58.591Z,100898.13
2022-11-18T13:56:14.683Z,100894.66
2022-11-18T13:58:19.180Z,100905.06
2022-11-18T14:00:26.951Z,100902.44
2022-11-18T14:02:28.623Z,100904.13
2022-11-18T14:04:32.082Z,100907.59
2022-11-18T14:06:34.693Z,100909.31
2022-11-18T14:08:38.820Z,100911.06
2022-11-18T14:10:44.610Z,100917.16
2022-11-18T14:12:58.872Z,100922.34
2022-11-18T14:15:16.715Z,100926.66
2022-11-18T14:17:26.900Z,100930.97
2022-11-18T14:19:31.002Z,100931.84
2022-11-18T14:21:35.175Z,100930.97
2022-11-18T14:23:37.411Z,100931.84
2022-11-18T14:25:44.153Z,100930.97
2022-11-18T14:27:48.671Z,100936.19
2022-11-18T14:29:50.484Z,100936.19
2022-11-18T14:32:10.884Z,100943.09
2022-11-18T14:34:26.696Z,100950.91
2022-11-18T14:36:28.143Z,100959.59
2022-11-18T14:38:51.963Z,100956.09
2022-11-18T14:41:03.347Z,100956.97
2022-11-18T14:43:05.135Z,100963.03
2022-11-18T14:45:06.801Z,100966.53
2022-11-18T14:47:23.695Z,100964.78
2022-11-18T14:49:27.519Z,100964.78
2022-11-18T14:51:29.277Z,100964.78
2022-11-18T14:53:30.760Z,100969.97
2022-11-18T14:55:32.284Z,100976.91
2022-11-18T14:57:33.742Z,100978.66
2022-11-18T14:59:35.191Z,100976.06
2022-11-18T15:01:36.718Z,100980.41
2022-11-18T15:03:38.741Z,100983.84
2022-11-18T15:05:40.788Z,100982.13
2022-11-18T15:07:42.369Z,100991.69
2022-11-18T15:09:44.260Z,100984.75
2022-11-18T15:11:45.743Z,101002.09
2022-11-18T15:13:47.799Z,101009.00
2022-11-18T15:15:49.339Z,101006.38
2022-11-18T15:17:53.708Z,101005.50
2022-11-18T15:19:55.572Z,101013.31
2022-11-18T15:21:57.006Z,101008.91
2022-11-18T15:23:58.430Z,101011.50
2022-11-18T15:25:59.850Z,101013.22
2022-11-18T15:28:01.663Z,101012.34
2022-11-18T15:30:04.439Z,101013.22
2022-11-18T15:32:06.553Z,101018.44
2022-11-18T15:34:07.993Z,101021.91
2022-11-18T15:36:12.964Z,101025.41
2022-11-18T15:38:14.398Z,101019.31
2022-11-18T15:40:16.083Z,101026.25
2022-11-18T15:42:22.985Z,101025.38
2022-11-18T15:44:24.954Z,101034.94
2022-11-18T15:46:27.940Z,101035.78
2022-11-18T15:48:29.365Z,101041.84
2022-11-18T15:50:30.822Z,101039.25
2022-11-18T15:52:32.336Z,101045.31
2022-11-18T15:54:33.764Z,101043.56
2022-11-18T15:56:35.342Z,101047.00
2022-11-18T15:58:39.816Z,101050.47
2022-11-18T16:00:44.755Z,101061.69
2022-11-18T16:02:46.675Z,101061.69
2022-11-18T16:04:48.215Z,101071.22
2022-11-18T16:06:49.644Z,101070.31
2022-11-18T16:08:57.582Z,101065.03
2022-11-18T16:11:18.951Z,101071.06
2022-11-18T16:13:21.465Z,101071.91
2022-11-18T16:15:41.585Z,101080.56
2022-11-18T16:17:42.981Z,101075.34
2022-11-18T16:19:44.408Z,101083.13
2022-11-18T16:21:48.489Z,101084.91
2022-11-18T16:23:49.977Z,101084.00
2022-11-18T16:25:53.300Z,101080.50
2022-11-18T16:27:55.606Z,101086.59
2022-11-18T16:29:57.107Z,101082.28
2022-11-18T16:31:58.539Z,101090.06
2022-11-18T16:33:59.968Z,101097.00
2022-11-18T16:36:01.449Z,101095.28
2022-11-18T16:38:02.937Z,101098.72
2022-11-18T16:40:04.700Z,101093.50
2022-11-18T16:42:09.026Z,101105.63
2022-11-18T16:44:13.700Z,101103.03
2022-11-18T16:46:15.145Z,101108.28
2022-11-18T16:48:16.545Z,101110.03
2022-11-18T16:50:17.972Z,101118.66
2022-11-18T16:52:19.421Z,101117.84
2022-11-18T16:54:23.159Z,101125.59
2022-11-18T16:56:26.985Z,101118.66
2022-11-18T16:58:28.398Z,101113.44
2022-11-18T17:00:59.829Z,101121.31
2022-11-18T17:02:52.186Z,101126.44
2022-11-18T17:04:53.608Z,101122.13
2022-11-18T17:06:56.000Z,101138.66
2022-11-18T17:09:01.151Z,101139.53
2022-11-18T17:11:10.219Z,101141.28
2022-11-18T17:13:11.629Z,101141.28
2022-11-18T17:15:14.133Z,101143.91
2022-11-18T17:17:15.545Z,101143.03
2022-11-18T17:19:19.889Z,101154.28
2022-11-18T17:21:21.996Z,101145.56
2022-11-18T17:23:23.444Z,101145.53
2022-11-18T17:25:24.931Z,101154.28
2022-11-18T17:27:26.341Z,101162.94
2022-11-18T17:29:27.840Z,101163.81
2022-11-18T17:31:29.371Z,101165.56
2022-11-18T17:33:30.800Z,101165.56
2022-11-18T17:35:32.245Z,101170.75
2022-11-18T17:37:33.825Z,101171.59
2022-11-18T17:39:35.599Z,101175.97
2022-11-18T17:41:55.432Z,101181.19
2022-11-18T17:44:01.051Z,101169.88
2022-11-18T17:46:02.932Z,101172.44
2022-11-18T17:48:04.485Z,101183.78
2022-11-18T17:50:06.278Z,101189.84
2022-11-18T17:52:07.931Z,101191.53
2022-11-18T17:54:10.020Z,101190.72
2022-11-18T17:56:11.517Z,101196.72
2022-11-18T17:58:13.682Z,101195.91
2022-11-18T18:00:15.562Z,101200.19
2022-11-18T18:02:18.686Z,101204.53
2022-11-18T18:04:21.437Z,101207.13
2022-11-18T18:06:23.233Z,101221.94
2022-11-18T18:08:24.663Z,101215.81
2022-11-18T18:10:26.859Z,101211.53
2022-11-18T18:12:46.903Z,101215.81
2022-11-18T18:14:48.347Z,101221.00
2022-11-18T18:16:50.997Z,101208.84
2022-11-18T18:18:52.604Z,101222.75
2022-11-18T18:20:54.198Z,101225.38
2022-11-18T18:22:56.296Z,101222.75
2022-11-18T18:24:57.775Z,101227.06
2022-11-18T18:27:00.565Z,101234.03
2022-11-18T18:29:02.892Z,101232.28
2022-11-18T18:31:08.052Z,101241.84
2022-11-18T18:33:09.486Z,101243.53
2022-11-18T18:35:11.310Z,101251.34
2022-11-18T18:37:12.809Z,101247.84
2022-11-18T18:39:14.291Z,101253.06
2022-11-18T18:41:18.028Z,101254.81
2022-11-18T18:43:20.060Z,101248.75
2022-11-18T18:45:39.681Z,101255.66
2022-11-18T18:47:41.192Z,101253.06
2022-11-18T18:49:42.933Z,101257.38
2022-11-18T18:51:48.826Z,101262.63
2022-11-18T18:53:50.290Z,101262.63
2022-11-18T18:55:55.965Z,101265.22
2022-11-18T18:57:57.383Z,101268.69
2022-11-18T18:59:58.855Z,101267.81
2022-11-18T19:02:00.769Z,101271.25
2022-11-18T19:04:05.093Z,101271.22
2022-11-18T19:06:49.107Z,101277.31
2022-11-18T19:08:44.643Z,101278.19
2022-11-18T19:10:46.065Z,101286.88
2022-11-18T19:12:52.079Z,101286.84
2022-11-18T19:14:53.583Z,101276.44
2022-11-18T19:16:56.303Z,101278.16
2022-11-18T19:18:58.730Z,101277.25
2022-11-18T19:21:00.249Z,101269.38
2022-11-18T19:23:09.715Z,101279.81
2022-11-18T19:25:11.717Z,101282.41
2022-11-18T19:27:13.221Z,101291.94
2022-11-18T19:29:14.722Z,101290.19
2022-11-18T19:31:18.178Z,101297.09
2022-11-18T19:33:19.811Z,101302.22
2022-11-18T19:35:22.627Z,101303.94
2022-11-18T19:37:24.069Z,101309.97
2022-11-18T19:39:25.871Z,101311.72
2022-11-18T19:41:27.285Z,101310.75
2022-11-18T19:43:29.178Z,101310.69
2022-11-18T19:45:30.600Z,101316.75
2022-11-18T19:47:32.217Z,101308.91
2022-11-18T19:49:33.662Z,101313.22
2022-11-18T19:51:36.701Z,101315.78
2022-11-18T19:53:39.870Z,101313.13
2022-11-18T19:55:41.308Z,101321.69
2022-11-18T19:57:42.762Z,101320.81
2022-11-18T19:59:45.804Z,101334.63
2022-11-18T20:01:47.799Z,101328.53
2022-11-18T20:03:50.770Z,101329.41
2022-11-18T20:05:52.219Z,101332.78
2022-11-18T20:07:55.805Z,101339.63
2022-11-18T20:09:57.226Z,101343.09
2022-11-18T20:11:58.687Z,101334.47
2022-11-18T20:14:00.152Z,101338.75
2022-11-18T20:16:06.242Z,101338.69
2022-11-18T20:18:08.297Z,101338.63
2022-11-18T20:20:10.307Z,101332.53
2022-11-18T20:22:11.769Z,101342.03
2022-11-18T20:24:18.286Z,101348.94
2022-11-18T20:26:22.051Z,101342.88
2022-11-18T20:28:23.494Z,101345.41
2022-11-18T20:30:24.942Z,101345.41
2022-11-18T20:32:26.357Z,101352.28
2022-11-18T20:34:27.900Z,101346.94
2022-11-18T20:36:32.322Z,101342.53
2022-11-18T20:38:34.391Z,101346.00
2022-11-18T20:40:35.865Z,101356.28
2022-11-18T20:42:56.237Z,101354.50
2022-11-18T20:44:57.652Z,101362.31
2022-11-18T20:46:59.111Z,101352.69
2022-11-18T20:49:00.625Z,101363.03
2022-11-18T20:51:06.502Z,101362.19
2022-11-18T20:53:07.955Z,101364.69
2022-11-18T20:55:10.484Z,101362.94
2022-11-18T20:57:11.928Z,101363.78
2022-11-18T20:59:14.490Z,101356.84
2022-11-18T21:01:18.698Z,101378.41
2022-11-18T21:03:21.253Z,101378.41
2022-11-18T21:05:22.730Z,101368.84
2022-11-18T21:07:24.192Z,101377.44
2022-11-18T21:09:26.409Z,101383.44
2022-11-18T21:11:28.484Z,101374.72
2022-11-18T21:13:49.533Z,101384.22
2022-11-18T21:15:51.201Z,101382.53
2022-11-18T21:17:52.695Z,101382.47
2022-11-18T21:19:54.128Z,101382.44
2022-11-18T21:21:56.586Z,101381.50
2022-11-18T21:24:00.120Z,101384.91
2022-11-18T21:26:02.441Z,101388.44
2022-11-18T21:28:04.756Z,101394.47
2022-11-18T21:30:06.913Z,101390.09
2022-11-18T21:32:08.417Z,101390.09
2022-11-18T21:34:11.335Z,101397.03
2022-11-18T21:36:12.757Z,101401.34
2022-11-18T21:38:14.167Z,101403.91
2022-11-18T21:40:15.916Z,101404.72
2022-11-18T21:42:17.385Z,101408.19
2022-11-18T21:44:18.959Z,101408.13
2022-11-18T21:46:20.631Z,101410.63
2022-11-18T21:48:22.031Z,101400.28
2022-11-18T21:50:23.568Z,101405.41
2022-11-18T21:52:24.963Z,101411.44
2022-11-18T21:54:26.413Z,101403.59
2022-11-18T21:56:32.959Z,101412.28
2022-11-18T21:58:34.442Z,101417.47
2022-11-18T22:00:35.980Z,101414.81
2022-11-18T22:02:37.516Z,101412.25
2022-11-18T22:04:54.232Z,101413.97
2022-11-18T22:06:55.695Z,101419.97
2022-11-18T22:08:57.279Z,101425.13
2022-11-18T22:10:58.709Z,101426.88
2022-11-18T22:13:00.112Z,101426.81
2022-11-18T22:15:01.558Z,101431.13
2022-11-18T22:17:03.836Z,101428.53
2022-11-18T22:19:08.286Z,101428.41
2022-11-18T22:21:15.902Z,101438.00
2022-11-18T22:23:18.247Z,101439.69
2022-11-18T22:25:19.677Z,101438.72
2022-11-18T22:27:21.107Z,101435.19
2022-11-18T22:29:24.302Z,101442.13
2022-11-18T22:31:27.869Z,101440.38
2022-11-18T22:33:30.025Z,101447.28
2022-11-18T22:35:31.463Z,101451.63
2022-11-18T22:37:32.872Z,101443.75
2022-11-18T22:39:34.290Z,101452.38
2022-11-18T22:41:54.433Z,101447.94
2022-11-18T22:43:56.015Z,101457.41
2022-11-18T22:46:00.973Z,101453.94
2022-11-18T22:48:02.416Z,101456.47
2022-11-18T22:50:04.259Z,101457.25
2022-11-18T22:52:05.733Z,101464.97
2022-11-18T22:54:38.338Z,101470.03
2022-11-18T22:56:29.753Z,101478.63
2022-11-18T22:58:31.730Z,101473.44
2022-11-18T23:00:33.160Z,101480.28
2022-11-18T23:02:34.575Z,101480.22
2022-11-18T23:04:36.068Z,101479.28
2022-11-18T23:06:37.512Z,101490.47
2022-11-18T23:08:40.943Z,101489.56
2022-11-18T23:10:42.376Z,101493.84
2022-11-18T23:13:04.048Z,101488.59
2022-11-18T23:15:06.046Z,101492.03
2022-11-18T23:17:07.483Z,101486.00
2022-11-18T23:19:14.383Z,101487.72
2022-11-18T23:21:15.913Z,101494.59
2022-11-18T23:23:17.485Z,101491.94
2022-11-18T23:25:18.906Z,101492.72
2022-11-18T23:27:20.576Z,101495.28
2022-11-18T23:29:22.521Z,101495.25
2022-11-18T23:31:26.309Z,101497.81
2022-11-18T23:33:27.737Z,101502.06
2022-11-18T23:35:29.161Z,101508.13
2022-11-18T23:37:30.597Z,101508.13
2022-11-18T23:39:32.008Z,101510.59
2022-11-18T23:41:33.546Z,101502.81
2022-11-18T23:43:36.118Z,101508.75
2022-11-18T23:45:37.516Z,101507.78
2022-11-18T23:47:39.021Z,101501.69
2022-11-18T23:49:40.589Z,101515.47
2022-11-18T23:51:42.258Z,101518.06
2022-11-18T23:53:44.978Z,101522.34
2022-11-18T23:55:46.410Z,101520.50